sensor_id;sensor_type;location;lat;lon;timestamp;P1;durP1;ratioP1;P2;durP2;ratioP2
19645;SDS011;9971;52.446;13.452;2023-06-22T00:01:12;1.77;;;1.67;;
19645;SDS011;9971;52.446;13.452;2023-06-22T00:06:15;1.90;;;1.80;;
19645;SDS011;9971;52.446;13.452;2023-06-22T00:11:17;1.40;;;1.40;;
19645;SDS011;9971;52.446;13.452;2023-06-22T00:16:19;1.62;;;1.55;;
19645;SDS011;9971;52.446;13.452;2023-06-22T00:21:22;1.37;;;1.30;;
19645;SDS011;9971;52.446;13.452;2023-06-22T00:26:24;1.53;;;1.43;;
19645;SDS011;9971;52.446;13.452;2023-06-22T00:31:27;1.35;;;1.32;;
19645;SDS011;9971;52.446;13.452;2023-06-22T00:36:29;1.47;;;1.37;;
19645;SDS011;9971;52.446;13.452;2023-06-22T00:41:32;1.10;;;1.10;;
19645;SDS011;9971;52.446;13.452;2023-06-22T00:46:34;1.05;;;1.05;;
19645;SDS011;9971;52.446;13.452;2023-06-22T00:51:37;1.30;;;1.30;;
19645;SDS011;9971;52.446;13.452;2023-06-22T00:56:39;1.10;;;1.10;;
19645;SDS011;9971;52.446;13.452;2023-06-22T01:01:41;1.17;;;1.17;;
19645;SDS011;9971;52.446;13.452;2023-06-22T01:06:49;1.12;;;1.12;;
19645;SDS011;9971;52.446;13.452;2023-06-22T01:11:50;1.10;;;1.10;;
19645;SDS011;9971;52.446;13.452;2023-06-22T01:16:49;1.23;;;1.17;;
19645;SDS011;9971;52.446;13.452;2023-06-22T01:21:52;1.20;;;1.20;;
19645;SDS011;9971;52.446;13.452;2023-06-22T01:27:00;1.07;;;1.07;;
19645;SDS011;9971;52.446;13.452;2023-06-22T01:32:00;1.00;;;1.00;;
19645;SDS011;9971;52.446;13.452;2023-06-22T01:37:02;1.10;;;1.10;;
19645;SDS011;9971;52.446;13.452;2023-06-22T01:42:05;1.07;;;1.07;;
19645;SDS011;9971;52.446;13.452;2023-06-22T01:47:07;0.90;;;0.90;;
19645;SDS011;9971;52.446;13.452;2023-06-22T01:52:09;1.13;;;1.13;;
19645;SDS011;9971;52.446;13.452;2023-06-22T01:57:12;0.88;;;0.88;;
19645;SDS011;9971;52.446;13.452;2023-06-22T02:02:15;1.10;;;1.10;;
19645;SDS011;9971;52.446;13.452;2023-06-22T02:07:17;0.90;;;0.90;;
19645;SDS011;9971;52.446;13.452;2023-06-22T02:12:24;1.10;;;1.10;;
19645;SDS011;9971;52.446;13.452;2023-06-22T02:17:21;1.00;;;1.00;;
19645;SDS011;9971;52.446;13.452;2023-06-22T02:22:23;0.93;;;0.93;;
19645;SDS011;9971;52.446;13.452;2023-06-22T02:27:25;1.00;;;1.00;;
19645;SDS011;9971;52.446;13.452;2023-06-22T02:32:28;0.90;;;0.90;;
19645;SDS011;9971;52.446;13.452;2023-06-22T02:37:31;1.02;;;1.02;;
19645;SDS011;9971;52.446;13.452;2023-06-22T02:42:32;0.93;;;0.93;;
19645;SDS011;9971;52.446;13.452;2023-06-22T02:47:35;1.07;;;1.07;;
19645;SDS011;9971;52.446;13.452;2023-06-22T02:52:37;1.10;;;1.00;;
19645;SDS011;9971;52.446;13.452;2023-06-22T02:57:39;0.95;;;0.95;;
19645;SDS011;9971;52.446;13.452;2023-06-22T03:02:42;1.37;;;1.27;;
19645;SDS011;9971;52.446;13.452;2023-06-22T03:07:44;1.07;;;1.07;;
19645;SDS011;9971;52.446;13.452;2023-06-22T03:12:46;1.27;;;1.17;;
19645;SDS011;9971;52.446;13.452;2023-06-22T03:17:48;1.27;;;1.27;;
19645;SDS011;9971;52.446;13.452;2023-06-22T03:22:51;1.27;;;1.27;;
19645;SDS011;9971;52.446;13.452;2023-06-22T03:27:53;1.12;;;1.12;;
19645;SDS011;9971;52.446;13.452;2023-06-22T03:32:55;1.07;;;1.07;;
19645;SDS011;9971;52.446;13.452;2023-06-22T03:37:58;1.17;;;1.17;;
19645;SDS011;9971;52.446;13.452;2023-06-22T03:43:00;1.05;;;1.05;;
19645;SDS011;9971;52.446;13.452;2023-06-22T03:48:03;0.90;;;0.90;;
19645;SDS011;9971;52.446;13.452;2023-06-22T03:53:06;0.95;;;0.95;;
19645;SDS011;9971;52.446;13.452;2023-06-22T03:58:08;1.10;;;1.10;;
19645;SDS011;9971;52.446;13.452;2023-06-22T04:03:10;1.10;;;1.10;;
19645;SDS011;9971;52.446;13.452;2023-06-22T04:08:13;1.60;;;1.50;;
19645;SDS011;9971;52.446;13.452;2023-06-22T04:13:15;1.10;;;1.10;;
19645;SDS011;9971;52.446;13.452;2023-06-22T04:18:18;1.30;;;1.20;;
19645;SDS011;9971;52.446;13.452;2023-06-22T04:23:21;1.30;;;1.23;;
19645;SDS011;9971;52.446;13.452;2023-06-22T04:28:23;1.20;;;1.20;;
19645;SDS011;9971;52.446;13.452;2023-06-22T04:33:26;1.10;;;1.10;;
19645;SDS011;9971;52.446;13.452;2023-06-22T04:38:28;1.12;;;1.12;;
19645;SDS011;9971;52.446;13.452;2023-06-22T04:43:31;1.10;;;1.10;;
19645;SDS011;9971;52.446;13.452;2023-06-22T04:48:33;1.17;;;1.17;;
19645;SDS011;9971;52.446;13.452;2023-06-22T04:53:35;1.10;;;1.10;;
19645;SDS011;9971;52.446;13.452;2023-06-22T04:58:38;0.85;;;0.85;;
19645;SDS011;9971;52.446;13.452;2023-06-22T05:03:40;1.00;;;1.00;;
19645;SDS011;9971;52.446;13.452;2023-06-22T05:08:43;0.82;;;0.82;;
19645;SDS011;9971;52.446;13.452;2023-06-22T05:13:45;1.00;;;1.00;;
19645;SDS011;9971;52.446;13.452;2023-06-22T05:18:49;0.90;;;0.90;;
19645;SDS011;9971;52.446;13.452;2023-06-22T05:23:53;1.10;;;1.10;;
19645;SDS011;9971;52.446;13.452;2023-06-22T05:28:54;0.95;;;0.95;;
19645;SDS011;9971;52.446;13.452;2023-06-22T05:33:56;0.93;;;0.93;;
19645;SDS011;9971;52.446;13.452;2023-06-22T05:38:58;1.20;;;1.20;;
19645;SDS011;9971;52.446;13.452;2023-06-22T05:44:01;0.82;;;0.82;;
19645;SDS011;9971;52.446;13.452;2023-06-22T05:49:03;1.00;;;1.00;;
19645;SDS011;9971;52.446;13.452;2023-06-22T05:54:06;0.90;;;0.90;;
19645;SDS011;9971;52.446;13.452;2023-06-22T05:59:08;1.00;;;1.00;;
19645;SDS011;9971;52.446;13.452;2023-06-22T06:04:11;0.88;;;0.88;;
19645;SDS011;9971;52.446;13.452;2023-06-22T06:09:14;0.90;;;0.90;;
19645;SDS011;9971;52.446;13.452;2023-06-22T06:14:15;1.00;;;1.00;;
19645;SDS011;9971;52.446;13.452;2023-06-22T06:19:18;0.80;;;0.80;;
19645;SDS011;9971;52.446;13.452;2023-06-22T06:24:20;0.68;;;0.68;;
19645;SDS011;9971;52.446;13.452;2023-06-22T06:29:24;0.60;;;0.60;;
19645;SDS011;9971;52.446;13.452;2023-06-22T06:34:26;0.50;;;0.50;;
19645;SDS011;9971;52.446;13.452;2023-06-22T06:39:29;0.60;;;0.60;;
19645;SDS011;9971;52.446;13.452;2023-06-22T06:44:31;0.90;;;0.60;;
19645;SDS011;9971;52.446;13.452;2023-06-22T06:49:33;0.65;;;0.65;;
19645;SDS011;9971;52.446;13.452;2023-06-22T06:54:36;0.90;;;0.90;;
19645;SDS011;9971;52.446;13.452;2023-06-22T06:59:38;0.50;;;0.50;;
19645;SDS011;9971;52.446;13.452;2023-06-22T07:04:41;0.60;;;0.40;;
19645;SDS011;9971;52.446;13.452;2023-06-22T07:09:43;0.40;;;0.40;;
19645;SDS011;9971;52.446;13.452;2023-06-22T07:14:46;0.68;;;0.68;;
19645;SDS011;9971;52.446;13.452;2023-06-22T07:19:49;0.60;;;0.60;;
19645;SDS011;9971;52.446;13.452;2023-06-22T07:24:52;0.60;;;0.60;;
19645;SDS011;9971;52.446;13.452;2023-06-22T07:29:54;1.07;;;0.90;;
19645;SDS011;9971;52.446;13.452;2023-06-22T07:34:57;0.62;;;0.62;;
19645;SDS011;9971;52.446;13.452;2023-06-22T07:39:59;0.60;;;0.60;;
19645;SDS011;9971;52.446;13.452;2023-06-22T07:45:03;0.43;;;0.43;;
19645;SDS011;9971;52.446;13.452;2023-06-22T07:50:05;0.63;;;0.63;;
19645;SDS011;9971;52.446;13.452;2023-06-22T07:55:08;0.73;;;0.73;;
19645;SDS011;9971;52.446;13.452;2023-06-22T08:00:11;0.60;;;0.60;;
19645;SDS011;9971;52.446;13.452;2023-06-22T08:05:14;0.93;;;0.93;;
19645;SDS011;9971;52.446;13.452;2023-06-22T08:10:16;0.70;;;0.70;;
19645;SDS011;9971;52.446;13.452;2023-06-22T08:15:18;0.72;;;0.72;;
19645;SDS011;9971;52.446;13.452;2023-06-22T08:20:20;0.70;;;0.70;;
19645;SDS011;9971;52.446;13.452;2023-06-22T08:25:23;0.50;;;0.50;;
19645;SDS011;9971;52.446;13.452;2023-06-22T08:30:25;0.70;;;0.70;;
19645;SDS011;9971;52.446;13.452;2023-06-22T08:35:27;0.70;;;0.70;;
19645;SDS011;9971;52.446;13.452;2023-06-22T08:40:30;0.50;;;0.50;;
19645;SDS011;9971;52.446;13.452;2023-06-22T08:45:32;0.55;;;0.55;;
19645;SDS011;9971;52.446;13.452;2023-06-22T08:50:35;0.60;;;0.60;;
19645;SDS011;9971;52.446;13.452;2023-06-22T08:55:38;0.75;;;0.75;;
19645;SDS011;9971;52.446;13.452;2023-06-22T09:00:42;0.60;;;0.60;;
19645;SDS011;9971;52.446;13.452;2023-06-22T09:05:45;0.70;;;0.70;;
19645;SDS011;9971;52.446;13.452;2023-06-22T09:10:47;0.70;;;0.70;;
19645;SDS011;9971;52.446;13.452;2023-06-22T09:15:50;0.50;;;0.50;;
19645;SDS011;9971;52.446;13.452;2023-06-22T09:20:53;0.45;;;0.45;;
19645;SDS011;9971;52.446;13.452;2023-06-22T09:25:55;0.60;;;0.60;;
19645;SDS011;9971;52.446;13.452;2023-06-22T09:30:58;0.37;;;0.37;;
19645;SDS011;9971;52.446;13.452;2023-06-22T09:36:00;0.60;;;0.60;;
19645;SDS011;9971;52.446;13.452;2023-06-22T09:41:06;0.60;;;0.60;;
19645;SDS011;9971;52.446;13.452;2023-06-22T09:46:19;0.60;;;0.60;;
19645;SDS011;9971;52.446;13.452;2023-06-22T09:51:22;0.78;;;0.78;;
19645;SDS011;9971;52.446;13.452;2023-06-22T09:56:23;0.47;;;0.47;;
19645;SDS011;9971;52.446;13.452;2023-06-22T10:01:26;0.60;;;0.60;;
19645;SDS011;9971;52.446;13.452;2023-06-22T10:06:28;0.53;;;0.53;;
19645;SDS011;9971;52.446;13.452;2023-06-22T10:11:31;0.60;;;0.60;;
19645;SDS011;9971;52.446;13.452;2023-06-22T10:16:33;0.63;;;0.63;;
19645;SDS011;9971;52.446;13.452;2023-06-22T10:21:35;0.53;;;0.53;;
19645;SDS011;9971;52.446;13.452;2023-06-22T10:26:37;0.57;;;0.57;;
19645;SDS011;9971;52.446;13.452;2023-06-22T10:31:40;0.50;;;0.50;;
19645;SDS011;9971;52.446;13.452;2023-06-22T10:36:42;0.50;;;0.50;;
19645;SDS011;9971;52.446;13.452;2023-06-22T10:41:45;0.40;;;0.40;;
19645;SDS011;9971;52.446;13.452;2023-06-22T10:46:47;0.60;;;0.60;;
19645;SDS011;9971;52.446;13.452;2023-06-22T10:51:50;0.50;;;0.50;;
19645;SDS011;9971;52.446;13.452;2023-06-22T10:56:52;0.47;;;0.47;;
19645;SDS011;9971;52.446;13.452;2023-06-22T11:01:55;0.42;;;0.42;;
19645;SDS011;9971;52.446;13.452;2023-06-22T11:06:57;0.50;;;0.50;;
19645;SDS011;9971;52.446;13.452;2023-06-22T11:11:59;0.45;;;0.45;;
19645;SDS011;9971;52.446;13.452;2023-06-22T11:17:02;0.37;;;0.37;;
19645;SDS011;9971;52.446;13.452;2023-06-22T11:22:04;0.60;;;0.60;;
19645;SDS011;9971;52.446;13.452;2023-06-22T11:27:07;0.37;;;0.37;;
19645;SDS011;9971;52.446;13.452;2023-06-22T11:32:09;0.55;;;0.55;;
19645;SDS011;9971;52.446;13.452;2023-06-22T11:37:12;0.60;;;0.60;;
19645;SDS011;9971;52.446;13.452;2023-06-22T11:42:14;0.50;;;0.50;;
19645;SDS011;9971;52.446;13.452;2023-06-22T11:47:17;0.45;;;0.45;;
19645;SDS011;9971;52.446;13.452;2023-06-22T11:52:19;0.50;;;0.50;;
19645;SDS011;9971;52.446;13.452;2023-06-22T11:57:22;0.67;;;0.50;;
19645;SDS011;9971;52.446;13.452;2023-06-22T12:02:24;0.40;;;0.40;;
19645;SDS011;9971;52.446;13.452;2023-06-22T12:07:27;0.50;;;0.50;;
19645;SDS011;9971;52.446;13.452;2023-06-22T12:12:29;0.28;;;0.28;;
19645;SDS011;9971;52.446;13.452;2023-06-22T12:17:32;0.42;;;0.42;;
19645;SDS011;9971;52.446;13.452;2023-06-22T12:22:34;0.30;;;0.30;;
19645;SDS011;9971;52.446;13.452;2023-06-22T12:27:36;0.37;;;0.37;;
19645;SDS011;9971;52.446;13.452;2023-06-22T12:32:38;0.40;;;0.40;;
19645;SDS011;9971;52.446;13.452;2023-06-22T12:37:41;0.30;;;0.30;;
19645;SDS011;9971;52.446;13.452;2023-06-22T12:42:44;0.50;;;0.50;;
19645;SDS011;9971;52.446;13.452;2023-06-22T12:47:45;0.50;;;0.50;;
19645;SDS011;9971;52.446;13.452;2023-06-22T12:52:48;0.30;;;0.30;;
19645;SDS011;9971;52.446;13.452;2023-06-22T12:57:50;0.45;;;0.45;;
19645;SDS011;9971;52.446;13.452;2023-06-22T13:02:53;0.30;;;0.30;;
19645;SDS011;9971;52.446;13.452;2023-06-22T13:07:55;0.30;;;0.30;;
19645;SDS011;9971;52.446;13.452;2023-06-22T13:12:58;0.13;;;0.13;;
19645;SDS011;9971;52.446;13.452;2023-06-22T13:18:00;0.82;;;0.70;;
19645;SDS011;9971;52.446;13.452;2023-06-22T13:23:02;0.28;;;0.28;;
19645;SDS011;9971;52.446;13.452;2023-06-22T13:28:05;0.37;;;0.37;;
19645;SDS011;9971;52.446;13.452;2023-06-22T13:33:08;0.60;;;0.60;;
19645;SDS011;9971;52.446;13.452;2023-06-22T13:38:09;0.33;;;0.33;;
19645;SDS011;9971;52.446;13.452;2023-06-22T13:43:12;0.40;;;0.40;;
19645;SDS011;9971;52.446;13.452;2023-06-22T13:48:14;0.25;;;0.25;;
19645;SDS011;9971;52.446;13.452;2023-06-22T13:53:17;0.27;;;0.27;;
19645;SDS011;9971;52.446;13.452;2023-06-22T13:58:19;0.30;;;0.30;;
19645;SDS011;9971;52.446;13.452;2023-06-22T14:03:21;0.40;;;0.40;;
19645;SDS011;9971;52.446;13.452;2023-06-22T14:08:24;0.30;;;0.30;;
19645;SDS011;9971;52.446;13.452;2023-06-22T14:13:27;0.40;;;0.40;;
19645;SDS011;9971;52.446;13.452;2023-06-22T14:18:29;0.40;;;0.40;;
19645;SDS011;9971;52.446;13.452;2023-06-22T14:23:32;0.20;;;0.20;;
19645;SDS011;9971;52.446;13.452;2023-06-22T14:28:34;0.20;;;0.20;;
19645;SDS011;9971;52.446;13.452;2023-06-22T14:33:37;0.28;;;0.28;;
19645;SDS011;9971;52.446;13.452;2023-06-22T14:38:40;0.28;;;0.28;;
19645;SDS011;9971;52.446;13.452;2023-06-22T14:43:43;0.28;;;0.28;;
19645;SDS011;9971;52.446;13.452;2023-06-22T14:48:48;0.30;;;0.30;;
19645;SDS011;9971;52.446;13.452;2023-06-22T14:53:50;0.30;;;0.30;;
19645;SDS011;9971;52.446;13.452;2023-06-22T14:58:53;0.30;;;0.30;;
19645;SDS011;9971;52.446;13.452;2023-06-22T15:03:55;0.30;;;0.30;;
19645;SDS011;9971;52.446;13.452;2023-06-22T15:08:58;0.30;;;0.30;;
19645;SDS011;9971;52.446;13.452;2023-06-22T15:14:00;0.20;;;0.20;;
19645;SDS011;9971;52.446;13.452;2023-06-22T15:19:02;0.20;;;0.20;;
19645;SDS011;9971;52.446;13.452;2023-06-22T15:24:05;0.33;;;0.33;;
19645;SDS011;9971;52.446;13.452;2023-06-22T15:29:07;0.40;;;0.40;;
19645;SDS011;9971;52.446;13.452;2023-06-22T15:34:10;0.30;;;0.30;;
19645;SDS011;9971;52.446;13.452;2023-06-22T15:39:12;0.27;;;0.27;;
19645;SDS011;9971;52.446;13.452;2023-06-22T15:44:14;0.23;;;0.23;;
19645;SDS011;9971;52.446;13.452;2023-06-22T15:49:17;0.33;;;0.33;;
19645;SDS011;9971;52.446;13.452;2023-06-22T15:54:19;0.10;;;0.10;;
19645;SDS011;9971;52.446;13.452;2023-06-22T15:59:22;0.20;;;0.20;;
19645;SDS011;9971;52.446;13.452;2023-06-22T16:04:24;0.15;;;0.15;;
19645;SDS011;9971;52.446;13.452;2023-06-22T16:09:27;0.20;;;0.20;;
19645;SDS011;9971;52.446;13.452;2023-06-22T16:14:29;0.30;;;0.30;;
19645;SDS011;9971;52.446;13.452;2023-06-22T16:19:31;0.20;;;0.20;;
19645;SDS011;9971;52.446;13.452;2023-06-22T16:24:33;0.20;;;0.20;;
19645;SDS011;9971;52.446;13.452;2023-06-22T16:29:36;0.10;;;0.10;;
19645;SDS011;9971;52.446;13.452;2023-06-22T16:34:39;0.20;;;0.20;;
19645;SDS011;9971;52.446;13.452;2023-06-22T16:39:41;0.20;;;0.20;;
19645;SDS011;9971;52.446;13.452;2023-06-22T16:44:44;0.30;;;0.30;;
19645;SDS011;9971;52.446;13.452;2023-06-22T16:49:46;0.30;;;0.30;;
19645;SDS011;9971;52.446;13.452;2023-06-22T16:54:48;0.20;;;0.20;;
19645;SDS011;9971;52.446;13.452;2023-06-22T16:59:52;0.13;;;0.13;;
19645;SDS011;9971;52.446;13.452;2023-06-22T17:04:53;0.30;;;0.30;;
19645;SDS011;9971;52.446;13.452;2023-06-22T17:09:55;0.13;;;0.13;;
19645;SDS011;9971;52.446;13.452;2023-06-22T17:14:57;0.17;;;0.17;;
19645;SDS011;9971;52.446;13.452;2023-06-22T17:20:00;0.10;;;0.10;;
19645;SDS011;9971;52.446;13.452;2023-06-22T17:25:02;0.20;;;0.20;;
19645;SDS011;9971;52.446;13.452;2023-06-22T17:30:05;0.20;;;0.20;;
19645;SDS011;9971;52.446;13.452;2023-06-22T17:35:09;0.15;;;0.15;;
19645;SDS011;9971;52.446;13.452;2023-06-22T17:40:13;0.27;;;0.27;;
19645;SDS011;9971;52.446;13.452;2023-06-22T17:45:15;0.25;;;0.25;;
19645;SDS011;9971;52.446;13.452;2023-06-22T17:50:18;0.10;;;0.10;;
19645;SDS011;9971;52.446;13.452;2023-06-22T17:55:21;0.10;;;0.10;;
19645;SDS011;9971;52.446;13.452;2023-06-22T18:00:23;0.20;;;0.20;;
19645;SDS011;9971;52.446;13.452;2023-06-22T18:05:28;0.10;;;0.10;;
19645;SDS011;9971;52.446;13.452;2023-06-22T18:10:30;0.10;;;0.10;;
19645;SDS011;9971;52.446;13.452;2023-06-22T18:15:32;0.10;;;0.10;;
19645;SDS011;9971;52.446;13.452;2023-06-22T18:20:34;0.20;;;0.20;;
19645;SDS011;9971;52.446;13.452;2023-06-22T18:25:35;0.20;;;0.20;;
19645;SDS011;9971;52.446;13.452;2023-06-22T18:30:38;0.10;;;0.10;;
19645;SDS011;9971;52.446;13.452;2023-06-22T18:35:40;0.20;;;0.20;;
19645;SDS011;9971;52.446;13.452;2023-06-22T18:40:48;0.10;;;0.10;;
19645;SDS011;9971;52.446;13.452;2023-06-22T18:45:45;0.30;;;0.30;;
19645;SDS011;9971;52.446;13.452;2023-06-22T18:50:48;0.20;;;0.20;;
19645;SDS011;9971;52.446;13.452;2023-06-22T18:55:51;0.20;;;0.20;;
19645;SDS011;9971;52.446;13.452;2023-06-22T19:00:52;0.30;;;0.30;;
19645;SDS011;9971;52.446;13.452;2023-06-22T19:05:54;0.17;;;0.17;;
19645;SDS011;9971;52.446;13.452;2023-06-22T19:11:10;0.50;;;0.50;;
19645;SDS011;9971;52.446;13.452;2023-06-22T19:15:59;0.30;;;0.30;;
19645;SDS011;9971;52.446;13.452;2023-06-22T19:21:02;0.30;;;0.30;;
19645;SDS011;9971;52.446;13.452;2023-06-22T19:26:07;0.30;;;0.30;;
19645;SDS011;9971;52.446;13.452;2023-06-22T19:31:09;0.25;;;0.25;;
19645;SDS011;9971;52.446;13.452;2023-06-22T19:36:11;0.13;;;0.13;;
19645;SDS011;9971;52.446;13.452;2023-06-22T19:41:13;0.20;;;0.20;;
19645;SDS011;9971;52.446;13.452;2023-06-22T19:46:15;0.20;;;0.20;;
19645;SDS011;9971;52.446;13.452;2023-06-22T19:51:18;0.20;;;0.20;;
19645;SDS011;9971;52.446;13.452;2023-06-22T19:56:20;0.20;;;0.20;;
19645;SDS011;9971;52.446;13.452;2023-06-22T20:01:22;0.30;;;0.30;;
19645;SDS011;9971;52.446;13.452;2023-06-22T20:06:25;0.40;;;0.40;;
19645;SDS011;9971;52.446;13.452;2023-06-22T20:11:28;0.20;;;0.20;;
19645;SDS011;9971;52.446;13.452;2023-06-22T20:16:30;0.45;;;0.45;;
19645;SDS011;9971;52.446;13.452;2023-06-22T20:21:32;0.30;;;0.30;;
19645;SDS011;9971;52.446;13.452;2023-06-22T20:26:45;0.30;;;0.30;;
19645;SDS011;9971;52.446;13.452;2023-06-22T20:37:03;4.83;;;3.50;;
19645;SDS011;9971;52.446;13.452;2023-06-22T20:42:05;4.65;;;3.40;;
19645;SDS011;9971;52.446;13.452;2023-06-22T20:47:07;2.30;;;2.20;;
19645;SDS011;9971;52.446;13.452;2023-06-22T20:52:09;1.27;;;1.00;;
19645;SDS011;9971;52.446;13.452;2023-06-22T20:57:12;0.70;;;0.70;;
19645;SDS011;9971;52.446;13.452;2023-06-22T21:02:14;0.60;;;0.60;;
19645;SDS011;9971;52.446;13.452;2023-06-22T21:07:17;0.50;;;0.50;;
19645;SDS011;9971;52.446;13.452;2023-06-22T21:12:19;0.80;;;0.80;;
19645;SDS011;9971;52.446;13.452;2023-06-22T21:17:22;0.60;;;0.60;;
19645;SDS011;9971;52.446;13.452;2023-06-22T21:22:25;0.47;;;0.47;;
19645;SDS011;9971;52.446;13.452;2023-06-22T21:27:26;0.50;;;0.50;;
19645;SDS011;9971;52.446;13.452;2023-06-22T21:32:29;0.72;;;0.72;;
19645;SDS011;9971;52.446;13.452;2023-06-22T21:37:32;0.40;;;0.40;;
19645;SDS011;9971;52.446;13.452;2023-06-22T21:42:34;0.50;;;0.50;;
19645;SDS011;9971;52.446;13.452;2023-06-22T21:47:36;1.25;;;0.98;;
19645;SDS011;9971;52.446;13.452;2023-06-22T21:52:39;3.17;;;2.87;;
19645;SDS011;9971;52.446;13.452;2023-06-22T21:57:42;0.82;;;0.82;;
19645;SDS011;9971;52.446;13.452;2023-06-22T22:02:44;0.82;;;0.82;;
19645;SDS011;9971;52.446;13.452;2023-06-22T22:07:47;0.70;;;0.70;;
19645;SDS011;9971;52.446;13.452;2023-06-22T22:12:50;0.65;;;0.65;;
19645;SDS011;9971;52.446;13.452;2023-06-22T22:17:53;0.43;;;0.43;;
19645;SDS011;9971;52.446;13.452;2023-06-22T22:22:55;0.70;;;0.70;;
19645;SDS011;9971;52.446;13.452;2023-06-22T22:27:58;0.63;;;0.63;;
19645;SDS011;9971;52.446;13.452;2023-06-22T22:33:00;0.95;;;0.95;;
19645;SDS011;9971;52.446;13.452;2023-06-22T22:38:03;0.80;;;0.80;;
19645;SDS011;9971;52.446;13.452;2023-06-22T22:43:05;0.60;;;0.60;;
19645;SDS011;9971;52.446;13.452;2023-06-22T22:48:08;0.70;;;0.70;;
19645;SDS011;9971;52.446;13.452;2023-06-22T22:53:10;0.60;;;0.60;;
19645;SDS011;9971;52.446;13.452;2023-06-22T22:58:12;0.68;;;0.68;;
19645;SDS011;9971;52.446;13.452;2023-06-22T23:03:15;0.70;;;0.70;;
19645;SDS011;9971;52.446;13.452;2023-06-22T23:08:17;0.80;;;0.80;;
19645;SDS011;9971;52.446;13.452;2023-06-22T23:13:19;0.50;;;0.50;;
19645;SDS011;9971;52.446;13.452;2023-06-22T23:18:22;0.60;;;0.60;;
19645;SDS011;9971;52.446;13.452;2023-06-22T23:23:24;0.60;;;0.60;;
19645;SDS011;9971;52.446;13.452;2023-06-22T23:28:27;0.53;;;0.53;;
19645;SDS011;9971;52.446;13.452;2023-06-22T23:33:29;0.53;;;0.53;;
19645;SDS011;9971;52.446;13.452;2023-06-22T23:38:31;0.40;;;0.40;;
19645;SDS011;9971;52.446;13.452;2023-06-22T23:43:34;1.00;;;1.00;;
19645;SDS011;9971;52.446;13.452;2023-06-22T23:48:36;0.47;;;0.47;;
19645;SDS011;9971;52.446;13.452;2023-06-22T23:53:39;0.70;;;0.70;;
19645;SDS011;9971;52.446;13.452;2023-06-22T23:58:41;0.67;;;0.67;;
